Terminal Aerodrome Forecast
Issued by NWS

Home | Current Version | Previous Version | Text Only | Print | Product List | Glossary On
Versions: 1 2 3 4 5 6 7 8 9 10 11 12 13 14 15 16 17 18 19 20 21 22 23 24 25 26 27 28 29 30 31 32 33 34 35 36 37 38 39 40 41 42 43 44 45 46 47 48 49
000
FTUS45 KGJT 242338
TAFRIL
TAF
KRIL 242338Z 2500/2524 28010KT P6SM VCSH SCT050 OVC100
      TEMPO 2500/2502 3SM -SHSN BKN035
     FM250400 VRB03KT P6SM BKN050
     FM251200 VRB03KT P6SM BKN110
     FM251800 27004KT P6SM VCSH BKN080
     FM252000 27010G18KT P6SM OVC060=

USA.gov is the U.S. government's official web portal to all federal, state and local government web resources and services.